New Milford, CT (06776)

1:21 PM EST on December 28, 2014 (GMT -0500)
Parkwood | Change Station
CLOSE
Current Station
Personal Weather Station
Location: New Milford, CT
Elevation: 856 ft
Nearby Weather Stations

Elev 856 ft 41.60 °N, 73.39 °W | Updated 1 second ago

Overcast
Overcast
46.5 °F
Feels Like 46 °F
N
0.5
Wind Variable Wind from WNW
Gusts 2.3 mph

Today
High -- | Low -- °F
--% Chance of Precip.
Yesterday
High -- | Low -- °F
Precip. -- in
7:19 AM 4:30 PM
Waxing Crescent, 50% visible
Pressure 29.86 in
Visibility 10.0 miles
Clouds Overcast 9500 ft
Windchill 46 °F
Dew Point 43 °F
Humidity 88%
Rainfall 0.15 in
Snow Depth Not available.
UV 1 out of 12
Pollen .10 out of 12
Air Quality Not available.
Flu Activity Not available.
METAR KDXR 281753Z 26004KT 10SM OVC095 09/04 A2986 RMK AO2 SLP111 60007 T00940044 10094 20056 55012

More Conditions Fewer Conditions

Pressure 29.86 in
Visibility 10.0 miles
Clouds Overcast 9500 ft
Windchill 46 °F
Dew Point 43 °F
Humidity 88%
Rainfall 0.15 in
Snow Depth Not available.
UV 1 out of 12
Pollen .10 out of 12
Air Quality Not available.
Flu Activity Not available.
METAR KDXR 281753Z 26004KT 10SM OVC095 09/04 A2986 RMK AO2 SLP111 60007 T00940044 10094 20056 55012

More Conditions Fewer Conditions

10-Day Weather Forecast

Almanac

Astronomy

Dec. 28, 2014 Rise Set
Actual Time
Civil Twilight
Nautical Twilight
Astronomical Twilight
Moon
Length of Visible Light
Length of Day
Tomorrow will be .
, % of the Moon is Illuminated

Today's Extremes

State Highs State Lows

Community

WunderPhotos

Upload Photos

1,781,379 photos uploaded!

WunderBlogs® & News

Nearby

Air Quality

  Air Quality AQ Index Pollutant
Not available.

Snow Depth

Station Depth Elevation

Earthquake Activity

City Distance Mag. Time & Date
Minimum magnitude displayed is 2.5.

Coastal Water Temperatures

Place Temperature

Nearby Weather Stations